sensor_id;sensor_type;location;lat;lon;timestamp;pressure;altitude;pressure_sealevel;temperature;humidity
63190;BME280;49286;44.460;26.114;2023-08-06T00:00:02;99155.88;;;22.68;100.00
63190;BME280;49286;44.460;26.114;2023-08-06T00:02:28;99202.53;;;23.02;100.00
63190;BME280;49286;44.460;26.114;2023-08-06T00:04:54;99293.34;;;23.55;100.00
63190;BME280;49286;44.460;26.114;2023-08-06T00:07:19;99300.72;;;23.64;100.00
63190;BME280;49286;44.460;26.114;2023-08-06T00:09:45;99232.59;;;23.18;100.00
63190;BME280;49286;44.460;26.114;2023-08-06T00:12:10;99300.53;;;23.54;100.00
63190;BME280;49286;44.460;26.114;2023-08-06T00:14:36;99241.50;;;23.06;100.00
63190;BME280;49286;44.460;26.114;2023-08-06T00:17:01;99301.72;;;23.37;100.00
63190;BME280;49286;44.460;26.114;2023-08-06T00:19:27;99232.25;;;22.72;100.00
63190;BME280;49286;44.460;26.114;2023-08-06T00:21:52;99223.69;;;22.80;100.00
63190;BME280;49286;44.460;26.114;2023-08-06T00:24:17;99318.63;;;23.38;100.00
63190;BME280;49286;44.460;26.114;2023-08-06T00:26:43;99298.19;;;23.37;100.00
63190;BME280;49286;44.460;26.114;2023-08-06T00:29:08;99235.03;;;22.96;100.00
63190;BME280;49286;44.460;26.114;2023-08-06T00:31:34;99287.19;;;23.16;100.00
63190;BME280;49286;44.460;26.114;2023-08-06T00:33:59;99203.06;;;22.69;100.00
63190;BME280;49286;44.460;26.114;2023-08-06T00:36:25;99212.13;;;22.79;100.00
63190;BME280;49286;44.460;26.114;2023-08-06T00:38:50;99186.13;;;22.68;100.00
63190;BME280;49286;44.460;26.114;2023-08-06T00:41:16;99306.22;;;23.37;100.00
63190;BME280;49286;44.460;26.114;2023-08-06T00:43:41;99312.00;;;23.31;100.00
63190;BME280;49286;44.460;26.114;2023-08-06T00:46:07;99209.78;;;22.74;100.00
63190;BME280;49286;44.460;26.114;2023-08-06T00:48:32;99308.06;;;23.11;100.00
63190;BME280;49286;44.460;26.114;2023-08-06T00:50:59;99293.38;;;23.04;100.00
63190;BME280;49286;44.460;26.114;2023-08-06T00:53:24;99241.88;;;22.87;100.00
63190;BME280;49286;44.460;26.114;2023-08-06T00:55:50;99279.16;;;23.03;100.00
63190;BME280;49286;44.460;26.114;2023-08-06T00:58:16;99208.38;;;22.43;100.00
63190;BME280;49286;44.460;26.114;2023-08-06T01:00:42;99186.88;;;22.32;100.00
63190;BME280;49286;44.460;26.114;2023-08-06T01:03:08;99271.81;;;22.80;100.00
63190;BME280;49286;44.460;26.114;2023-08-06T01:05:34;99212.75;;;22.44;100.00
63190;BME280;49286;44.460;26.114;2023-08-06T01:08:19;99285.22;;;22.92;100.00
63190;BME280;49286;44.460;26.114;2023-08-06T01:16:06;99292.53;;;23.03;100.00
63190;BME280;49286;44.460;26.114;2023-08-06T01:18:33;99303.44;;;23.00;100.00
63190;BME280;49286;44.460;26.114;2023-08-06T01:20:59;99276.44;;;22.90;100.00
63190;BME280;49286;44.460;26.114;2023-08-06T01:23:24;99203.66;;;22.47;100.00
63190;BME280;49286;44.460;26.114;2023-08-06T01:29:10;99285.47;;;23.02;100.00
63190;BME280;49286;44.460;26.114;2023-08-06T01:31:36;99262.41;;;22.87;100.00
63190;BME280;49286;44.460;26.114;2023-08-06T01:34:05;99195.75;;;22.45;100.00
63190;BME280;49286;44.460;26.114;2023-08-06T01:36:32;99194.88;;;22.05;100.00
63190;BME280;49286;44.460;26.114;2023-08-06T01:38:57;99256.72;;;22.66;100.00
63190;BME280;49286;44.460;26.114;2023-08-06T01:41:23;99250.97;;;22.72;100.00
63190;BME280;49286;44.460;26.114;2023-08-06T01:43:48;99231.38;;;22.59;100.00
63190;BME280;49286;44.460;26.114;2023-08-06T01:46:14;99244.66;;;22.60;100.00
63190;BME280;49286;44.460;26.114;2023-08-06T01:48:40;99168.56;;;22.26;100.00
63190;BME280;49286;44.460;26.114;2023-08-06T01:51:05;99246.03;;;22.53;100.00
63190;BME280;49286;44.460;26.114;2023-08-06T01:53:32;99296.75;;;22.27;100.00
63190;BME280;49286;44.460;26.114;2023-08-06T01:55:57;99219.09;;;21.89;100.00
63190;BME280;49286;44.460;26.114;2023-08-06T01:58:23;99223.13;;;22.09;100.00
63190;BME280;49286;44.460;26.114;2023-08-06T02:00:49;99191.28;;;22.06;100.00
63190;BME280;49286;44.460;26.114;2023-08-06T02:03:14;99199.38;;;22.04;100.00
63190;BME280;49286;44.460;26.114;2023-08-06T02:05:40;99326.13;;;22.54;100.00
63190;BME280;49286;44.460;26.114;2023-08-06T02:08:06;99206.50;;;21.91;100.00
63190;BME280;49286;44.460;26.114;2023-08-06T02:10:31;99211.47;;;22.10;100.00
63190;BME280;49286;44.460;26.114;2023-08-06T02:12:57;99311.00;;;22.81;100.00
63190;BME280;49286;44.460;26.114;2023-08-06T02:15:22;99311.88;;;22.41;100.00
63190;BME280;49286;44.460;26.114;2023-08-06T02:17:48;99065.19;;;21.06;100.00
63190;BME280;49286;44.460;26.114;2023-08-06T02:20:13;99301.66;;;22.61;100.00
63190;BME280;49286;44.460;26.114;2023-08-06T02:22:39;99232.81;;;22.24;100.00
63190;BME280;49286;44.460;26.114;2023-08-06T02:25:06;99267.34;;;22.27;100.00
63190;BME280;49286;44.460;26.114;2023-08-06T02:27:31;99303.25;;;22.63;100.00
63190;BME280;49286;44.460;26.114;2023-08-06T02:29:58;99248.88;;;22.24;100.00
63190;BME280;49286;44.460;26.114;2023-08-06T02:32:23;99231.94;;;22.24;100.00
63190;BME280;49286;44.460;26.114;2023-08-06T02:34:49;99296.16;;;22.49;100.00
63190;BME280;49286;44.460;26.114;2023-08-06T02:37:14;99313.81;;;22.52;100.00
63190;BME280;49286;44.460;26.114;2023-08-06T02:39:40;99324.81;;;22.20;100.00
63190;BME280;49286;44.460;26.114;2023-08-06T02:42:07;99310.50;;;21.65;100.00
63190;BME280;49286;44.460;26.114;2023-08-06T02:44:33;99243.34;;;21.01;100.00
63190;BME280;49286;44.460;26.114;2023-08-06T02:46:59;99247.91;;;21.14;100.00
63190;BME280;49286;44.460;26.114;2023-08-06T02:49:25;99338.34;;;21.90;100.00
63190;BME280;49286;44.460;26.114;2023-08-06T02:51:50;99350.69;;;22.05;100.00
63190;BME280;49286;44.460;26.114;2023-08-06T02:54:16;99309.16;;;22.14;100.00
63190;BME280;49286;44.460;26.114;2023-08-06T02:56:45;99283.13;;;22.18;100.00
63190;BME280;49286;44.460;26.114;2023-08-06T02:59:12;99288.66;;;22.29;100.00
63190;BME280;49286;44.460;26.114;2023-08-06T03:01:38;99315.69;;;22.37;100.00
63190;BME280;49286;44.460;26.114;2023-08-06T03:04:03;99194.72;;;21.81;100.00
63190;BME280;49286;44.460;26.114;2023-08-06T03:06:29;99195.16;;;21.87;100.00
63190;BME280;49286;44.460;26.114;2023-08-06T03:08:54;99298.50;;;22.41;100.00
63190;BME280;49286;44.460;26.114;2023-08-06T03:11:20;99264.81;;;22.11;100.00
63190;BME280;49286;44.460;26.114;2023-08-06T03:13:47;99298.28;;;22.44;100.00
63190;BME280;49286;44.460;26.114;2023-08-06T03:16:13;99290.13;;;22.33;100.00
63190;BME280;49286;44.460;26.114;2023-08-06T03:18:39;99284.28;;;22.41;100.00
63190;BME280;49286;44.460;26.114;2023-08-06T03:21:05;99213.13;;;21.98;100.00
63190;BME280;49286;44.460;26.114;2023-08-06T03:23:30;99307.53;;;22.66;100.00
63190;BME280;49286;44.460;26.114;2023-08-06T03:25:55;99313.28;;;22.47;100.00
63190;BME280;49286;44.460;26.114;2023-08-06T03:28:21;99229.53;;;22.06;100.00
63190;BME280;49286;44.460;26.114;2023-08-06T03:30:48;99216.50;;;22.14;100.00
63190;BME280;49286;44.460;26.114;2023-08-06T03:33:13;99300.81;;;22.73;100.00
63190;BME280;49286;44.460;26.114;2023-08-06T03:35:39;99304.56;;;22.70;100.00
63190;BME280;49286;44.460;26.114;2023-08-06T03:38:05;99264.13;;;22.62;100.00
63190;BME280;49286;44.460;26.114;2023-08-06T03:40:30;99273.13;;;22.74;100.00
63190;BME280;49286;44.460;26.114;2023-08-06T03:42:55;99168.78;;;21.96;100.00
63190;BME280;49286;44.460;26.114;2023-08-06T03:45:21;99250.28;;;22.43;100.00
63190;BME280;49286;44.460;26.114;2023-08-06T03:47:46;99274.81;;;22.62;100.00
63190;BME280;49286;44.460;26.114;2023-08-06T03:50:12;99284.34;;;22.79;100.00
63190;BME280;49286;44.460;26.114;2023-08-06T03:52:37;99188.69;;;22.31;100.00
63190;BME280;49286;44.460;26.114;2023-08-06T03:55:03;99168.31;;;22.16;100.00
63190;BME280;49286;44.460;26.114;2023-08-06T03:57:29;99103.59;;;21.85;100.00
63190;BME280;49286;44.460;26.114;2023-08-06T03:59:54;99168.22;;;22.18;100.00
63190;BME280;49286;44.460;26.114;2023-08-06T04:02:19;99266.16;;;22.84;100.00
63190;BME280;49286;44.460;26.114;2023-08-06T04:04:45;99278.03;;;22.80;100.00
63190;BME280;49286;44.460;26.114;2023-08-06T04:07:10;99268.53;;;22.89;100.00
63190;BME280;49286;44.460;26.114;2023-08-06T04:09:52;99169.53;;;22.38;100.00
63190;BME280;49286;44.460;26.114;2023-08-06T04:12:17;99173.72;;;22.42;100.00
63190;BME280;49286;44.460;26.114;2023-08-06T04:14:43;99206.78;;;22.53;100.00
63190;BME280;49286;44.460;26.114;2023-08-06T04:17:08;99262.34;;;22.36;100.00
63190;BME280;49286;44.460;26.114;2023-08-06T04:19:34;99150.13;;;22.08;100.00
63190;BME280;49286;44.460;26.114;2023-08-06T04:21:59;99276.59;;;23.02;100.00
63190;BME280;49286;44.460;26.114;2023-08-06T04:24:24;99192.66;;;22.51;100.00
63190;BME280;49286;44.460;26.114;2023-08-06T04:26:50;99262.75;;;22.95;100.00
63190;BME280;49286;44.460;26.114;2023-08-06T04:29:15;99263.84;;;23.05;100.00
63190;BME280;49286;44.460;26.114;2023-08-06T04:31:41;99171.34;;;22.50;100.00
63190;BME280;49286;44.460;26.114;2023-08-06T04:34:06;99247.03;;;23.03;100.00
63190;BME280;49286;44.460;26.114;2023-08-06T04:36:34;99274.72;;;22.89;100.00
63190;BME280;49286;44.460;26.114;2023-08-06T04:38:59;99266.53;;;23.05;100.00
63190;BME280;49286;44.460;26.114;2023-08-06T04:41:25;99256.66;;;23.06;100.00
63190;BME280;49286;44.460;26.114;2023-08-06T04:43:50;99136.66;;;22.10;100.00
63190;BME280;49286;44.460;26.114;2023-08-06T04:46:16;99163.13;;;22.40;100.00
63190;BME280;49286;44.460;26.114;2023-08-06T04:48:41;99269.63;;;22.99;100.00
63190;BME280;49286;44.460;26.114;2023-08-06T04:51:07;99257.47;;;22.68;100.00
63190;BME280;49286;44.460;26.114;2023-08-06T04:53:32;99261.88;;;22.69;100.00
63190;BME280;49286;44.460;26.114;2023-08-06T04:55:58;99285.34;;;23.16;100.00
63190;BME280;49286;44.460;26.114;2023-08-06T04:58:23;99205.78;;;22.54;100.00
63190;BME280;49286;44.460;26.114;2023-08-06T05:00:48;99280.03;;;22.64;100.00
63190;BME280;49286;44.460;26.114;2023-08-06T05:03:14;99175.50;;;21.88;100.00
63190;BME280;49286;44.460;26.114;2023-08-06T05:05:40;99274.19;;;22.71;100.00
63190;BME280;49286;44.460;26.114;2023-08-06T05:08:06;99179.06;;;22.42;100.00
63190;BME280;49286;44.460;26.114;2023-08-06T05:10:32;99260.41;;;23.03;100.00
63190;BME280;49286;44.460;26.114;2023-08-06T05:12:58;99268.66;;;23.13;100.00
63190;BME280;49286;44.460;26.114;2023-08-06T05:15:23;99259.66;;;23.14;100.00
63190;BME280;49286;44.460;26.114;2023-08-06T05:17:50;99181.72;;;22.80;100.00
63190;BME280;49286;44.460;26.114;2023-08-06T05:20:16;99158.88;;;22.76;100.00
63190;BME280;49286;44.460;26.114;2023-08-06T05:22:43;99255.78;;;23.44;100.00
63190;BME280;49286;44.460;26.114;2023-08-06T05:25:08;99259.59;;;23.65;100.00
63190;BME280;49286;44.460;26.114;2023-08-06T05:27:34;99160.84;;;23.24;100.00
63190;BME280;49286;44.460;26.114;2023-08-06T05:29:59;99154.06;;;23.31;100.00
63190;BME280;49286;44.460;26.114;2023-08-06T05:32:25;99214.53;;;23.83;100.00
63190;BME280;49286;44.460;26.114;2023-08-06T05:34:50;99118.84;;;23.37;100.00
63190;BME280;49286;44.460;26.114;2023-08-06T05:37:16;99199.38;;;23.95;100.00
63190;BME280;49286;44.460;26.114;2023-08-06T05:39:41;99130.03;;;23.42;100.00
63190;BME280;49286;44.460;26.114;2023-08-06T05:42:07;99194.47;;;23.89;100.00
63190;BME280;49286;44.460;26.114;2023-08-06T05:44:32;99092.16;;;23.35;100.00
63190;BME280;49286;44.460;26.114;2023-08-06T05:46:59;99104.69;;;23.59;100.00
63190;BME280;49286;44.460;26.114;2023-08-06T05:49:24;99091.25;;;23.48;100.00
63190;BME280;49286;44.460;26.114;2023-08-06T05:51:50;99093.19;;;23.70;100.00
63190;BME280;49286;44.460;26.114;2023-08-06T05:54:18;99170.88;;;23.94;100.00
63190;BME280;49286;44.460;26.114;2023-08-06T05:56:44;99148.25;;;24.44;100.00
63190;BME280;49286;44.460;26.114;2023-08-06T05:59:10;99082.22;;;24.08;100.00
63190;BME280;49286;44.460;26.114;2023-08-06T06:01:35;99171.91;;;23.80;100.00
63190;BME280;49286;44.460;26.114;2023-08-06T06:04:00;99167.44;;;24.27;100.00
63190;BME280;49286;44.460;26.114;2023-08-06T06:06:26;99102.78;;;23.96;100.00
63190;BME280;49286;44.460;26.114;2023-08-06T06:08:51;99179.22;;;24.13;100.00
63190;BME280;49286;44.460;26.114;2023-08-06T06:11:17;99169.66;;;24.33;100.00
63190;BME280;49286;44.460;26.114;2023-08-06T06:13:44;99073.78;;;23.66;100.00
63190;BME280;49286;44.460;26.114;2023-08-06T06:16:10;98982.13;;;23.63;100.00
63190;BME280;49286;44.460;26.114;2023-08-06T06:18:35;99100.22;;;24.98;100.00
63190;BME280;49286;44.460;26.114;2023-08-06T06:21:01;99123.53;;;24.97;100.00
63190;BME280;49286;44.460;26.114;2023-08-06T06:23:26;99141.59;;;25.29;100.00
63190;BME280;49286;44.460;26.114;2023-08-06T06:25:51;99136.94;;;24.86;100.00
63190;BME280;49286;44.460;26.114;2023-08-06T06:28:18;99100.00;;;24.90;100.00
63190;BME280;49286;44.460;26.114;2023-08-06T06:30:43;99124.13;;;25.01;100.00
63190;BME280;49286;44.460;26.114;2023-08-06T06:33:09;99122.88;;;25.16;100.00
63190;BME280;49286;44.460;26.114;2023-08-06T06:35:34;99032.53;;;24.83;100.00
63190;BME280;49286;44.460;26.114;2023-08-06T06:38:00;99101.13;;;25.42;100.00
63190;BME280;49286;44.460;26.114;2023-08-06T06:40:26;99048.63;;;25.05;100.00
63190;BME280;49286;44.460;26.114;2023-08-06T06:42:52;99114.59;;;25.31;100.00
63190;BME280;49286;44.460;26.114;2023-08-06T06:45:17;99097.13;;;25.36;100.00
63190;BME280;49286;44.460;26.114;2023-08-06T06:47:43;99082.63;;;25.60;100.00
63190;BME280;49286;44.460;26.114;2023-08-06T06:50:09;99086.97;;;25.72;100.00
63190;BME280;49286;44.460;26.114;2023-08-06T06:52:34;99096.75;;;25.73;100.00
63190;BME280;49286;44.460;26.114;2023-08-06T06:55:00;99017.09;;;25.19;100.00
63190;BME280;49286;44.460;26.114;2023-08-06T06:57:26;99028.53;;;24.77;100.00
63190;BME280;49286;44.460;26.114;2023-08-06T06:59:51;99037.34;;;25.23;100.00
63190;BME280;49286;44.460;26.114;2023-08-06T07:02:17;99011.97;;;25.27;100.00
63190;BME280;49286;44.460;26.114;2023-08-06T07:04:42;99018.63;;;25.33;100.00
63190;BME280;49286;44.460;26.114;2023-08-06T07:07:07;99037.84;;;25.49;100.00
63190;BME280;49286;44.460;26.114;2023-08-06T07:09:33;99004.16;;;25.24;100.00
63190;BME280;49286;44.460;26.114;2023-08-06T07:11:58;99103.31;;;25.48;100.00
63190;BME280;49286;44.460;26.114;2023-08-06T07:14:28;99098.41;;;25.53;100.00
63190;BME280;49286;44.460;26.114;2023-08-06T07:16:54;99094.91;;;25.74;100.00
63190;BME280;49286;44.460;26.114;2023-08-06T07:19:20;99096.16;;;26.23;100.00
63190;BME280;49286;44.460;26.114;2023-08-06T07:21:45;99097.03;;;26.54;100.00
63190;BME280;49286;44.460;26.114;2023-08-06T07:24:11;99085.44;;;25.58;100.00
63190;BME280;49286;44.460;26.114;2023-08-06T07:26:37;99044.78;;;25.84;100.00
63190;BME280;49286;44.460;26.114;2023-08-06T07:29:02;99097.88;;;26.33;100.00
63190;BME280;49286;44.460;26.114;2023-08-06T07:31:28;98997.00;;;25.66;100.00
63190;BME280;49286;44.460;26.114;2023-08-06T07:33:53;99070.56;;;26.07;100.00
63190;BME280;49286;44.460;26.114;2023-08-06T07:36:19;99011.84;;;25.70;100.00
63190;BME280;49286;44.460;26.114;2023-08-06T07:38:44;99017.78;;;25.85;100.00
63190;BME280;49286;44.460;26.114;2023-08-06T07:41:10;99089.44;;;26.17;100.00
63190;BME280;49286;44.460;26.114;2023-08-06T07:43:35;99135.38;;;26.25;100.00
63190;BME280;49286;44.460;26.114;2023-08-06T07:46:01;99119.59;;;26.42;100.00
63190;BME280;49286;44.460;26.114;2023-08-06T07:48:27;99025.28;;;25.70;100.00
63190;BME280;49286;44.460;26.114;2023-08-06T07:50:56;99048.69;;;25.59;100.00
63190;BME280;49286;44.460;26.114;2023-08-06T07:53:23;99115.41;;;26.28;100.00
63190;BME280;49286;44.460;26.114;2023-08-06T07:55:53;99113.91;;;26.14;100.00
63190;BME280;49286;44.460;26.114;2023-08-06T07:58:20;99100.25;;;25.85;100.00
63190;BME280;49286;44.460;26.114;2023-08-06T08:00:46;99015.03;;;25.22;100.00
63190;BME280;49286;44.460;26.114;2023-08-06T08:03:12;99013.44;;;25.09;100.00
63190;BME280;49286;44.460;26.114;2023-08-06T08:05:42;99073.41;;;25.74;100.00
63190;BME280;49286;44.460;26.114;2023-08-06T08:08:08;99092.53;;;25.59;100.00
63190;BME280;49286;44.460;26.114;2023-08-06T08:10:34;99081.78;;;25.92;100.00
63190;BME280;49286;44.460;26.114;2023-08-06T08:13:00;99045.16;;;25.79;100.00
63190;BME280;49286;44.460;26.114;2023-08-06T08:15:28;99057.44;;;25.40;100.00
63190;BME280;49286;44.460;26.114;2023-08-06T08:17:54;99013.16;;;25.87;100.00
63190;BME280;49286;44.460;26.114;2023-08-06T08:20:20;98940.44;;;25.47;100.00
63190;BME280;49286;44.460;26.114;2023-08-06T08:22:46;99029.75;;;25.81;100.00
63190;BME280;49286;44.460;26.114;2023-08-06T08:25:11;99068.22;;;25.82;100.00
63190;BME280;49286;44.460;26.114;2023-08-06T08:27:36;99002.72;;;25.73;100.00
63190;BME280;49286;44.460;26.114;2023-08-06T08:30:02;98989.44;;;25.81;100.00
63190;BME280;49286;44.460;26.114;2023-08-06T08:32:28;99086.09;;;26.46;100.00
63190;BME280;49286;44.460;26.114;2023-08-06T08:34:53;99029.09;;;26.31;100.00
63190;BME280;49286;44.460;26.114;2023-08-06T08:37:19;99088.34;;;26.71;100.00
63190;BME280;49286;44.460;26.114;2023-08-06T08:39:44;99046.16;;;26.20;100.00
63190;BME280;49286;44.460;26.114;2023-08-06T08:42:10;99098.84;;;26.23;100.00
63190;BME280;49286;44.460;26.114;2023-08-06T08:44:36;99061.78;;;26.57;100.00
63190;BME280;49286;44.460;26.114;2023-08-06T08:47:06;98985.19;;;26.30;100.00
63190;BME280;49286;44.460;26.114;2023-08-06T08:49:31;99072.91;;;26.22;100.00
63190;BME280;49286;44.460;26.114;2023-08-06T08:51:59;99010.88;;;26.14;100.00
63190;BME280;49286;44.460;26.114;2023-08-06T08:54:27;99093.44;;;26.65;100.00
63190;BME280;49286;44.460;26.114;2023-08-06T08:56:53;99075.59;;;26.73;100.00
63190;BME280;49286;44.460;26.114;2023-08-06T08:59:20;99073.50;;;26.87;100.00
63190;BME280;49286;44.460;26.114;2023-08-06T09:01:48;99101.59;;;26.94;100.00
63190;BME280;49286;44.460;26.114;2023-08-06T09:04:17;99024.47;;;26.43;100.00
63190;BME280;49286;44.460;26.114;2023-08-06T09:06:43;99109.88;;;27.12;100.00
63190;BME280;49286;44.460;26.114;2023-08-06T09:09:25;99111.41;;;27.05;100.00
63190;BME280;49286;44.460;26.114;2023-08-06T09:11:51;99065.72;;;26.84;100.00
63190;BME280;49286;44.460;26.114;2023-08-06T09:14:17;98970.97;;;26.09;100.00
63190;BME280;49286;44.460;26.114;2023-08-06T09:16:43;99042.03;;;26.47;100.00
63190;BME280;49286;44.460;26.114;2023-08-06T09:19:13;99033.66;;;25.88;100.00
63190;BME280;49286;44.460;26.114;2023-08-06T09:21:41;99123.75;;;26.46;100.00
63190;BME280;49286;44.460;26.114;2023-08-06T09:24:16;99055.09;;;26.51;100.00
63190;BME280;49286;44.460;26.114;2023-08-06T09:26:44;99004.75;;;26.63;100.00
63190;BME280;49286;44.460;26.114;2023-08-06T09:29:11;99129.13;;;27.67;100.00
63190;BME280;49286;44.460;26.114;2023-08-06T09:31:44;99138.31;;;27.26;100.00
63190;BME280;49286;44.460;26.114;2023-08-06T09:36:43;99155.81;;;27.61;100.00
63190;BME280;49286;44.460;26.114;2023-08-06T09:39:21;98998.00;;;25.86;100.00
63190;BME280;49286;44.460;26.114;2023-08-06T09:41:47;99086.13;;;26.25;100.00
63190;BME280;49286;44.460;26.114;2023-08-06T09:44:20;99092.13;;;26.17;100.00
63190;BME280;49286;44.460;26.114;2023-08-06T09:46:53;99168.88;;;26.84;100.00
63190;BME280;49286;44.460;26.114;2023-08-06T09:49:21;99131.41;;;27.12;100.00
63190;BME280;49286;44.460;26.114;2023-08-06T09:51:47;99145.91;;;26.90;100.00
63190;BME280;49286;44.460;26.114;2023-08-06T09:54:16;99060.34;;;26.53;100.00
63190;BME280;49286;44.460;26.114;2023-08-06T09:56:42;99161.84;;;27.33;100.00
63190;BME280;49286;44.460;26.114;2023-08-06T09:59:08;99064.41;;;27.19;100.00
63190;BME280;49286;44.460;26.114;2023-08-06T10:01:35;99161.53;;;27.87;100.00
63190;BME280;49286;44.460;26.114;2023-08-06T10:04:03;99157.59;;;27.31;100.00
63190;BME280;49286;44.460;26.114;2023-08-06T10:06:29;99133.53;;;27.08;100.00
63190;BME280;49286;44.460;26.114;2023-08-06T10:08:55;99118.81;;;27.12;100.00
63190;BME280;49286;44.460;26.114;2023-08-06T10:11:24;99033.31;;;26.55;100.00
63190;BME280;49286;44.460;26.114;2023-08-06T10:13:54;99095.81;;;27.08;100.00
63190;BME280;49286;44.460;26.114;2023-08-06T10:16:22;99081.91;;;27.03;100.00
63190;BME280;49286;44.460;26.114;2023-08-06T10:18:48;99089.22;;;26.82;100.00
63190;BME280;49286;44.460;26.114;2023-08-06T10:21:14;99094.78;;;27.30;100.00
63190;BME280;49286;44.460;26.114;2023-08-06T10:23:41;99001.56;;;27.08;100.00
63190;BME280;49286;44.460;26.114;2023-08-06T10:26:07;99084.19;;;27.97;100.00
63190;BME280;49286;44.460;26.114;2023-08-06T10:28:39;99073.06;;;28.19;100.00
63190;BME280;49286;44.460;26.114;2023-08-06T10:31:05;99019.72;;;27.74;100.00
63190;BME280;49286;44.460;26.114;2023-08-06T10:33:42;99091.53;;;27.75;100.00
63190;BME280;49286;44.460;26.114;2023-08-06T10:36:09;98989.00;;;27.38;100.00
63190;BME280;49286;44.460;26.114;2023-08-06T10:38:35;98976.81;;;27.24;100.00
63190;BME280;49286;44.460;26.114;2023-08-06T10:43:42;99068.41;;;27.83;100.00
63190;BME280;49286;44.460;26.114;2023-08-06T10:46:11;98889.50;;;26.98;100.00
63190;BME280;49286;44.460;26.114;2023-08-06T10:48:41;98966.13;;;27.71;100.00
63190;BME280;49286;44.460;26.114;2023-08-06T10:51:11;99039.47;;;27.36;100.00
63190;BME280;49286;44.460;26.114;2023-08-06T10:53:38;99039.75;;;27.72;100.00
63190;BME280;49286;44.460;26.114;2023-08-06T10:56:17;99079.91;;;27.94;100.00
63190;BME280;49286;44.460;26.114;2023-08-06T10:58:45;99083.72;;;28.11;100.00
63190;BME280;49286;44.460;26.114;2023-08-06T11:01:12;99076.22;;;27.86;100.00
63190;BME280;49286;44.460;26.114;2023-08-06T11:03:38;99108.56;;;27.76;100.00
63190;BME280;49286;44.460;26.114;2023-08-06T11:06:07;99081.63;;;27.06;100.00
63190;BME280;49286;44.460;26.114;2023-08-06T11:08:47;99094.78;;;27.30;100.00
63190;BME280;49286;44.460;26.114;2023-08-06T11:11:15;99011.91;;;26.53;100.00
63190;BME280;49286;44.460;26.114;2023-08-06T11:13:45;99033.41;;;26.74;100.00
63190;BME280;49286;44.460;26.114;2023-08-06T11:16:13;99017.41;;;26.51;100.00
63190;BME280;49286;44.460;26.114;2023-08-06T11:18:40;98998.28;;;26.85;100.00
63190;BME280;49286;44.460;26.114;2023-08-06T11:21:05;99000.19;;;27.04;100.00
63190;BME280;49286;44.460;26.114;2023-08-06T11:23:34;99091.97;;;27.51;100.00
63190;BME280;49286;44.460;26.114;2023-08-06T11:25:59;99055.94;;;27.33;100.00
63190;BME280;49286;44.460;26.114;2023-08-06T11:28:25;99086.28;;;27.45;100.00
63190;BME280;49286;44.460;26.114;2023-08-06T11:30:51;99021.56;;;27.15;100.00
63190;BME280;49286;44.460;26.114;2023-08-06T11:33:24;99059.19;;;27.46;100.00
63190;BME280;49286;44.460;26.114;2023-08-06T11:35:55;99076.06;;;27.48;100.00
63190;BME280;49286;44.460;26.114;2023-08-06T11:38:21;99108.69;;;27.55;100.00
63190;BME280;49286;44.460;26.114;2023-08-06T11:40:47;99015.88;;;26.99;100.00
63190;BME280;49286;44.460;26.114;2023-08-06T11:43:13;99078.03;;;27.36;100.00
63190;BME280;49286;44.460;26.114;2023-08-06T11:45:39;99095.91;;;27.28;100.00
63190;BME280;49286;44.460;26.114;2023-08-06T11:48:06;99012.16;;;26.81;100.00
63190;BME280;49286;44.460;26.114;2023-08-06T11:50:36;98991.38;;;26.52;100.00
63190;BME280;49286;44.460;26.114;2023-08-06T11:53:02;98943.22;;;26.49;100.00
63190;BME280;49286;44.460;26.114;2023-08-06T11:55:28;99034.47;;;27.12;100.00
63190;BME280;49286;44.460;26.114;2023-08-06T11:57:54;98913.34;;;26.52;100.00
63190;BME280;49286;44.460;26.114;2023-08-06T12:00:23;99015.53;;;26.73;100.00
63190;BME280;49286;44.460;26.114;2023-08-06T12:02:49;99027.09;;;26.33;100.00
63190;BME280;49286;44.460;26.114;2023-08-06T12:05:18;98966.91;;;25.52;100.00
63190;BME280;49286;44.460;26.114;2023-08-06T12:07:54;99050.66;;;26.20;100.00
63190;BME280;49286;44.460;26.114;2023-08-06T12:10:20;99036.34;;;26.40;100.00
63190;BME280;49286;44.460;26.114;2023-08-06T12:12:46;99026.34;;;26.52;100.00
63190;BME280;49286;44.460;26.114;2023-08-06T12:15:12;98935.69;;;26.02;100.00
63190;BME280;49286;44.460;26.114;2023-08-06T12:17:38;99054.16;;;26.10;100.00
63190;BME280;49286;44.460;26.114;2023-08-06T12:20:05;98943.84;;;25.70;100.00
63190;BME280;49286;44.460;26.114;2023-08-06T12:22:31;98944.69;;;25.70;100.00
63190;BME280;49286;44.460;26.114;2023-08-06T12:25:07;98934.81;;;25.92;100.00
63190;BME280;49286;44.460;26.114;2023-08-06T12:27:37;98975.19;;;26.42;100.00
63190;BME280;49286;44.460;26.114;2023-08-06T12:30:05;98910.94;;;26.49;100.00
63190;BME280;49286;44.460;26.114;2023-08-06T12:32:31;98903.59;;;26.51;100.00
63190;BME280;49286;44.460;26.114;2023-08-06T12:34:56;98855.00;;;26.43;100.00
63190;BME280;49286;44.460;26.114;2023-08-06T12:37:22;98897.53;;;26.78;100.00
63190;BME280;49286;44.460;26.114;2023-08-06T12:39:48;98935.97;;;27.09;100.00
63190;BME280;49286;44.460;26.114;2023-08-06T12:42:13;98885.91;;;26.58;100.00
63190;BME280;49286;44.460;26.114;2023-08-06T12:44:39;98891.69;;;26.53;100.00
63190;BME280;49286;44.460;26.114;2023-08-06T12:47:04;98998.16;;;27.06;100.00
63190;BME280;49286;44.460;26.114;2023-08-06T12:49:30;99000.00;;;27.15;100.00